Historique des mesures à Cassis (13260), France
Quotidien Résumé Janvier 13, 2018 Unités:  Métrique    US   Métrique/US
« Précédent (Jour)
Suivant (Jour) »
Quotidien Hebdomadaire Mensuel Annuel Période au choix
  Maximum: Minimum: Moyenne:
Température: TemperatureC °C 7.0 °C 9.6 °C
Point de rosée: DewpointC °C 2.1 °C 4.5 °C
Humidité: Humidity % 67 % 66 %
Vitesse du vent: 0 km/h 0 km/h 0.8 km/h
Rafales: 0 km/h - -
Vent:- - SSW
Pression: PressurehPa hPa 1015.5 hPa -
Précipitations: 0 mm    
Historical Graphs
 
 
Mesures pour : Janvier 13, 2018
Heure Temperature Point de rosée Pression Vent Vitesse du vent Rafales Humidité Pluie (par heure)
TemperatureC °C DewpointC °C PressurehPa hPa Calm     Humidity % 0 mm
00:12 8.6 °C 3.0 °C 1017.5 hPa Calm     68 % 0 mm
01:12 8.0 °C 2.7 °C 1017.2 hPa Calm   2.3 km/h 69 % 0 mm
02:12 7.8 °C 2.5 °C 1017.2 hPa NW 3.4 km/h 5.1 km/h 69 % 0 mm
03:12 7.9 °C 2.6 °C 1017.2 hPa Calm     69 % 0 mm
05:12 7.9 °C 2.3 °C 1016.5 hPa Calm     68 % 0 mm
06:12 7.2 °C 2.1 °C 1016.8 hPa Calm     70 % 0 mm
07:12 7.0 °C 2.3 °C 1016.8 hPa Calm     72 % 0 mm
08:12 7.3 °C 2.4 °C 1017.2 hPa Calm     71 % 0 mm
09:12 8.4 °C 3.3 °C 1017.8 hPa Calm     70 % 0 mm
11:12 11.3 °C 6.8 °C 1018.5 hPa Calm   11.6 km/h 74 % 0 mm
12:12 12.3 °C 7.4 °C 1018.2 hPa Calm   9.3 km/h 72 % 0 mm
14:12 13.8 °C 8.4 °C 1016.8 hPa SSW 6.9 km/h 7.6 km/h 70 % 0 mm
15:12 13.9 °C 8.3 °C 1016.5 hPa Calm     69 % 0 mm
16:12 13.0 °C 7.0 °C 1016.1 hPa Calm     67 % 0 mm
17:12 11.9 °C 6.4 °C 1016.1 hPa Calm     69 % 0 mm
19:12 11.2 °C 6.0 °C 1016.1 hPa Calm   2.9 km/h 70 % 0 mm
20:12 10.9 °C 5.7 °C 1016.1 hPa Calm     70 % 0 mm
21:12 10.8 °C 5.6 °C 1015.8 hPa Calm     70 % 0 mm
22:12 10.8 °C 5.4 °C 1015.8 hPa Calm     69 % 0 mm
23:12 10.9 °C 5.2 °C 1015.5 hPa ESE 8 km/h 8 km/h 68 % 0 mm
Observations météo à CASSIS
WU-History script by Weather Underground - 1 mb